• Join FlightAware (Why Join?)
  • Login
  • US Flag 
04:54AM EDT


 

Airport Tracker/Info


-or-


 

Live Flight TrackerFlight Track Log ✈ N717AN ✈ 02-May-2013 ✈ KJFK - EGLL / LHR

Flight Track Log - Related Links

Times and Time Zones

All times are in EDT time to prevent confusion due to time zone crossing. See the N717AN flight status page for this flight to view local times or setup timezone preferences in your user account.

Time Position Orientation Groundspeed Altitude Reporting Facility
EDT Latitude Longitude Course Direction KTS MPH feet Rate Location/Type
06:22PM 40.6110 -73.7940 213° Southwest 178 205 800  Level FlightAware
06:22PM 40.5920 -73.8080 209° Southwest 201 231 1,300 1,020 Climbing FlightAware
06:23PM 40.5750 -73.8160 200° South 223 257 1,600 1,020 Climbing FlightAware
06:23PM 40.5500 -73.8010 155° Southeast 242 278 2,100 1,680 Climbing FlightAware
06:23PM 40.5360 -73.7700 121° Southeast 250 288 3,000 2,280 Climbing FlightAware
06:24PM 40.5190 -73.7290 119° Southeast 254 292 4,200 1,560 Climbing FlightAware
06:24PM 40.5010 -73.6860 119° Southeast 254 292 4,600 420 Climbing FlightAware
06:25PM 40.4870 -73.6540 120° Southeast 254 292 4,600  Level FlightAware
06:25PM 40.4749 -73.6245 118° Southeast 255 293 4,600  Level FlightAware ADS-B
06:25PM 40.4660 -73.6041 120° Southeast 254 292 4,600  Level FlightAware ADS-B
06:26PM 40.4575 -73.5842 119° Southeast 255 293 4,600  Level FlightAware ADS-B
06:26PM 40.4440 -73.5440 114° Southeast 251 289 4,600  Level FlightAware
06:27PM 40.4550 -73.4950 74° East 249 287 4,600 480 Level FlightAware
06:27PM 40.4670 -73.4590 66° East 256 295 5,100 2,100 Climbing FlightAware
06:27PM 40.4740 -73.4390 65° Northeast 248 285 6,000 2,640 Climbing FlightAware
06:28PM 40.4880 -73.3970 66° East 254 292 7,100 2,220 Climbing FlightAware
06:28PM 40.4999 -73.3558 69° East 259 298 8,100 2,400 Climbing FlightAware ADS-B
06:29PM 40.5009 -73.3411 85° East 262 302 8,500 2,460 Climbing FlightAware ADS-B
06:29PM 40.4999 -73.3284 96° East 266 306 8,800 1,680 Climbing FlightAware ADS-B
06:30PM 40.5015 -73.2463 89° East 268 308 10,200 1,440 Climbing FlightAware ADS-B
06:30PM 40.5031 -73.2322 82° East 295 339 10,200 900 Level FlightAware ADS-B
06:30PM 40.5061 -73.2094 80° East 307 353 10,500 1,380 Climbing FlightAware ADS-B
06:30PM 40.5161 -73.1357 80° East 333 383 11,400 1,620 Climbing FlightAware ADS-B
06:31PM 40.5238 -73.0717 81° East 359 413 12,400 2,820 Climbing FlightAware ADS-B
06:32PM 40.5340 -72.9857 81° East 363 418 14,800 3,000 Climbing FlightAware ADS-B
06:32PM 40.5438 -72.9094 80° East 368 423 16,100 2,340 Climbing FlightAware ADS-B
06:33PM 40.5629 -72.7550 81° East 368 423 18,800 2,280 Climbing FlightAware ADS-B
06:34PM 40.5731 -72.6713 81° East 397 457 20,100 2,100 Climbing FlightAware ADS-B
06:35PM 40.5860 -72.5610 81° East 413 475 21,700 1,740 Climbing FlightAware
06:35PM 40.5980 -72.4660 81° East 429 494 22,600 1,500 Climbing FlightAware
06:36PM 40.6110 -72.3560 81° East 430 495 23,900 1,740 Climbing FlightAware
06:37PM 40.6240 -72.2480 81° East 441 507 25,100 1,740 Climbing FlightAware
06:38PM 40.6390 -72.1180 81° East 455 524 26,400 1,620 Climbing FlightAware
06:38PM 40.6510 -72.0120 81° East 461 531 27,400 1,380 Climbing FlightAware
06:39PM 40.6630 -71.9060 81° East 471 542 28,300 1,440 Climbing FlightAware
06:39PM 40.6744 -71.8086 81° East 480 552 29,100 780 Climbing FlightAware ADS-B
06:40PM 40.6900 -71.6770 81° East 481 554 29,400 1,380 Climbing FlightAware
06:40PM 40.6955 -71.6219 82° East 491 565 30,600 1,800 Climbing FlightAware ADS-B
06:42PM 40.7280 -71.3250 82° East 475 547 33,000 900 Climbing FlightAware
06:43PM 40.7440 -71.1840 81° East 474 545 33,000  Level FlightAware
06:44PM 40.7560 -71.0870 81° East 474 545 33,000  Level FlightAware
06:45PM 40.7700 -70.9650 81° East 474 545 33,000  Level FlightAware
06:45PM 40.7820 -70.8680 81° East 474 545 33,000  Level FlightAware
06:46PM 40.7940 -70.7050 84° East 473 544 33,000  Level FlightAware
06:47PM 40.8070 -70.5850 82° East 473 544 33,000  Level FlightAware
06:47PM 40.8200 -70.4620 82° East 473 544 33,000  Level FlightAware
06:48PM 40.8300 -70.3640 82° East 473 544 33,000  Level FlightAware
06:49PM 40.8410 -70.2350 84° East 473 544 33,000  Level FlightAware
06:49PM 40.8500 -70.1380 83° East 473 544 33,000  Level FlightAware
06:50PM 40.8620 -70.0160 83° East 473 544 33,000  Level FlightAware
06:51PM 40.8710 -69.9180 83° East 473 544 33,000  Level FlightAware
06:51PM 40.8800 -69.8200 83° East 473 544 33,000  Level FlightAware
06:52PM 40.8890 -69.7230 83° East 473 544 33,000  Level FlightAware
06:53PM 40.8980 -69.6250 83° East 473 544 33,000  Level FlightAware
06:53PM 40.9070 -69.5270 83° East 473 544 33,000  Level FlightAware
06:54PM 40.9180 -69.4050 83° East 473 544 33,000 -60 Level FlightAware
06:55PM 40.9440 -69.1600 82° East 33,000 -60 Level FlightAware
06:56PM 40.9600 -68.9617 82° East 461 531 32,900 -60 Descending New York Center
06:57PM 40.9742 -68.7992 83° East 461 531 32,900  Level New York Center
06:58PM 40.9861 -68.6506 84° East 461 531 33,000  Climbing New York Center
06:59PM 41.0000 -68.4933 83° East 448 516 33,000 -60 Level New York Center
07:00PM 41.0114 -68.3308 85° East 442 509 32,900 -60 Descending New York Center
07:01PM 41.0269 -68.1708 83° East 442 509 32,900  Level New York Center
07:02PM 41.0400 -68.0081 84° East 442 509 32,900  Level New York Center
07:03PM 41.0528 -67.8425 84° East 447 514 32,900  Level New York Center
07:04PM 41.0633 -67.6769 85° East 447 514 33,000  Climbing New York Center
07:05PM 41.0797 -67.5111 82° East 447 514 33,000 -60 Level New York Center
07:06PM 41.0897 -67.3428 85° East 452 520 32,900  Descending New York Center
07:07PM 41.1033 -67.1686 84° East 458 527 33,000  Climbing New York Center
07:08PM 41.1167 -67.0000 78° East 451 519 33,000  Level New York Oceanic (ODAPS)
07:15PM 41.2892 -65.8741 79° East 451 519 33,000  Level FlightAware Transoceanic
07:16PM 41.3130 -65.7128 79° East 451 519 33,000  Level FlightAware Transoceanic
07:17PM 41.3365 -65.5514 79° East 451 519 33,000  Level FlightAware Transoceanic
07:18PM 41.3598 -65.3898 79° East 451 519 33,000  Level FlightAware Transoceanic
07:18PM 41.3667 -65.4000 79° East 462 532 33,000  Level New York Oceanic (ODAPS)
07:19PM 41.3829 -65.2282 79° East 451 519 33,000  Level FlightAware Transoceanic
07:20PM 41.4057 -65.0664 79° East 451 519 33,000  Level FlightAware Transoceanic
07:21PM 41.4283 -64.9045 79° East 451 519 33,000  Level FlightAware Transoceanic
07:22PM 41.4507 -64.7425 80° East 451 519 33,000  Level FlightAware Transoceanic
07:22PM 41.4500 -64.7000 80° East 462 532 33,000  Level New York Oceanic (ODAPS)
07:23PM 41.4729 -64.5804 80° East 451 519 33,000  Level FlightAware Transoceanic
07:24PM 41.5046 -64.3959 80° East 462 532 33,000  Level FlightAware Transoceanic
07:25PM 41.5267 -64.2281 80° East 462 532 33,000  Level FlightAware Transoceanic
07:26PM 41.5486 -64.0603 80° East 462 532 33,000  Level FlightAware Transoceanic
07:27PM 41.5703 -63.8923 80° East 462 532 33,000  Level FlightAware Transoceanic
07:28PM 41.5887 -63.6627 80° East 462 532 33,000  Level FlightAware Transoceanic
07:29PM 41.6109 -63.4894 80° East 462 532 33,000  Level FlightAware Transoceanic
07:30PM 41.6329 -63.3160 80° East 462 532 33,000  Level FlightAware Transoceanic
07:31PM 41.6546 -63.1424 81° East 462 532 33,000  Level FlightAware Transoceanic
07:32PM 41.6760 -62.9688 81° East 462 532 33,000 840 Level FlightAware Transoceanic
07:32PM 41.6667 -63.0167 81° East 471 542 34,000  Climbing New York Oceanic (ODAPS)
07:33PM 41.6972 -62.7950 81° East 462 532 33,000 -540 Descending FlightAware Transoceanic
07:34PM 41.7181 -62.6211 81° East 462 532 33,000  Level FlightAware Transoceanic
07:35PM 41.7387 -62.4471 81° East 462 532 33,000  Level FlightAware Transoceanic
07:36PM 41.7591 -62.2730 81° East 462 532 33,000  Level FlightAware Transoceanic
07:37PM 41.7792 -62.0988 81° East 462 532 33,000 480 Level FlightAware Transoceanic
07:38PM 41.7933 -61.9556 81° East 471 542 34,000 480 Climbing FlightAware Transoceanic
07:39PM 41.8135 -61.7783 81° East 471 542 34,000  Level FlightAware Transoceanic
07:40PM 41.8334 -61.6010 82° East 471 542 34,000  Level FlightAware Transoceanic
07:41PM 41.8530 -61.4235 82° East 471 542 34,000  Level FlightAware Transoceanic
07:42PM 41.8723 -61.2459 82° East 471 542 34,000  Level FlightAware Transoceanic
07:43PM 41.8914 -61.0683 82° East 471 542 34,000  Level FlightAware Transoceanic
07:43PM 41.9000 -61.0333 82° East 470 541 34,000  Level New York Oceanic (ODAPS)
07:44PM 41.9102 -60.8905 82° East 471 542 34,000  Level FlightAware Transoceanic
07:45PM 41.9287 -60.7126 82° East 471 542 34,000  Level FlightAware Transoceanic
07:45PM 41.9333 -60.6167 82° East 454 522 34,000  Level New York Oceanic (ODAPS)
07:46PM 41.9469 -60.5346 82° East 471 542 34,000  Level FlightAware Transoceanic
07:47PM 41.9649 -60.3565 82° East 471 542 34,000  Level FlightAware Transoceanic
07:48PM 41.9826 -60.1783 82° East 471 542 34,000  Level FlightAware Transoceanic
07:49PM 42.0000 -60.0000 71° East 471 542 34,000  Level FlightAware Transoceanic
07:49PM 42.0000 -60.0000 71° East 460 529 34,000  Level New York Oceanic (ODAPS)
07:50PM 42.0403 -59.8389 71° East 470 541 34,000  Level FlightAware Transoceanic
07:51PM 42.0804 -59.6776 72° East 470 541 34,000  Level FlightAware Transoceanic
07:52PM 42.1203 -59.5162 72° East 454 522 34,000  Level FlightAware Transoceanic
07:53PM 42.1599 -59.3545 72° East 454 522 34,000  Level FlightAware Transoceanic
07:54PM 42.1993 -59.1926 72° East 454 522 34,000  Level FlightAware Transoceanic
07:55PM 42.2385 -59.0305 72° East 454 522 34,000  Level FlightAware Transoceanic
07:56PM 42.2775 -58.8682 72° East 460 529 34,000  Level FlightAware Transoceanic
07:57PM 42.3162 -58.7057 72° East 460 529 34,000  Level FlightAware Transoceanic
07:58PM 42.3547 -58.5430 72° East 460 529 34,000  Level FlightAware Transoceanic
07:59PM 42.3929 -58.3801 72° East 460 529 34,000  Level FlightAware Transoceanic
07:59PM 42.4000 -58.3500 72° East 461 531 34,000  Level New York Oceanic (ODAPS)
08:00PM 42.4310 -58.2170 73° East 460 529 34,000  Level FlightAware Transoceanic
08:01PM 42.4688 -58.0537 73° East 460 529 34,000  Level FlightAware Transoceanic
08:02PM 42.5063 -57.8902 73° East 460 529 34,000  Level FlightAware Transoceanic
08:03PM 42.5437 -57.7265 73° East 460 529 34,000  Level FlightAware Transoceanic
08:04PM 42.5808 -57.5627 73° East 460 529 34,000  Level FlightAware Transoceanic
08:05PM 42.6176 -57.3986 73° East 460 529 34,000  Level FlightAware Transoceanic
08:06PM 42.6281 -57.3519 73° East 461 531 34,000  Level FlightAware Transoceanic
08:07PM 42.6653 -57.1848 73° East 461 531 34,000  Level FlightAware Transoceanic
08:08PM 42.7022 -57.0176 73° East 461 531 34,000  Level FlightAware Transoceanic
08:09PM 42.7389 -56.8501 73° East 461 531 34,000  Level FlightAware Transoceanic
08:10PM 42.7753 -56.6825 74° East 461 531 34,000  Level FlightAware Transoceanic
08:11PM 42.8116 -56.5146 74° East 461 531 34,000  Level FlightAware Transoceanic
08:12PM 42.8475 -56.3466 74° East 461 531 34,000  Level FlightAware Transoceanic
08:13PM 42.8832 -56.1783 74° East 461 531 34,000  Level FlightAware Transoceanic
08:13PM 42.9000 -56.0667 74° East 457 526 34,000  Level New York Oceanic (ODAPS)
08:14PM 42.9187 -56.0099 74° East 461 531 34,000  Level FlightAware Transoceanic
08:15PM 42.9539 -55.8413 74° East 461 531 34,000  Level FlightAware Transoceanic
08:16PM 42.9888 -55.6725 74° East 461 531 34,000  Level FlightAware Transoceanic
08:17PM 43.0236 -55.5034 74° East 461 531 34,000  Level FlightAware Transoceanic
08:18PM 43.0580 -55.3342 74° East 461 531 34,000  Level FlightAware Transoceanic
08:19PM 43.0923 -55.1648 75° East 461 531 34,000  Level FlightAware Transoceanic
08:20PM 43.1388 -54.9047 75° East 457 526 34,000  Level FlightAware Transoceanic
08:21PM 43.1720 -54.7380 75° East 457 526 34,000  Level FlightAware Transoceanic
08:22PM 43.2049 -54.5711 75° East 457 526 34,000  Level FlightAware Transoceanic
08:23PM 43.2376 -54.4040 75° East 457 526 34,000  Level FlightAware Transoceanic
08:24PM 43.2700 -54.2367 75° East 457 526 34,000  Level FlightAware Transoceanic
08:25PM 43.3022 -54.0693 75° East 457 526 34,000  Level FlightAware Transoceanic
08:26PM 43.3341 -53.9017 75° East 457 526 34,000  Level FlightAware Transoceanic
08:27PM 43.3658 -53.7339 75° East 457 526 34,000  Level FlightAware Transoceanic
08:27PM 43.3667 -53.7833 76° East 454 522 34,000  Level New York Oceanic (ODAPS)
08:28PM 43.3972 -53.5659 76° East 457 526 34,000  Level FlightAware Transoceanic
08:29PM 43.4284 -53.3978 76° East 457 526 34,000  Level FlightAware Transoceanic
08:30PM 43.4594 -53.2294 76° East 457 526 34,000  Level FlightAware Transoceanic
08:31PM 43.4901 -53.0609 76° East 457 526 34,000  Level FlightAware Transoceanic
08:32PM 43.5206 -52.8923 76° East 457 526 34,000  Level FlightAware Transoceanic
08:33PM 43.5508 -52.7235 76° East 457 526 34,000  Level FlightAware Transoceanic
08:34PM 43.5726 -52.6404 76° East 454 522 34,000  Level FlightAware Transoceanic
08:35PM 43.6011 -52.4765 77° East 454 522 34,000  Level FlightAware Transoceanic
08:36PM 43.6293 -52.3125 77° East 454 522 34,000  Level FlightAware Transoceanic
08:37PM 43.6573 -52.1483 77° East 454 522 34,000  Level FlightAware Transoceanic
08:38PM 43.6851 -51.9839 77° East 454 522 34,000  Level FlightAware Transoceanic
08:39PM 43.7127 -51.8194 77° East 454 522 34,000  Level FlightAware Transoceanic
08:40PM 43.7400 -51.6547 77° East 454 522 34,000  Level FlightAware Transoceanic
08:41PM 43.7671 -51.4899 77° East 454 522 34,000  Level FlightAware Transoceanic
08:41PM 43.7667 -51.4333 77° East 463 533 34,000  Level New York Oceanic (ODAPS)
08:42PM 43.7939 -51.3249 77° East 454 522 34,000  Level FlightAware Transoceanic
08:43PM 43.8205 -51.1598 77° East 454 522 34,000  Level FlightAware Transoceanic
08:44PM 43.8469 -50.9946 78° East 454 522 34,000  Level FlightAware Transoceanic
08:45PM 43.8730 -50.8292 78° East 454 522 34,000  Level FlightAware Transoceanic
08:46PM 43.8989 -50.6636 78° East 454 522 34,000  Level FlightAware Transoceanic
08:47PM 43.9434 -50.3594 78° East 463 533 34,000  Level FlightAware Transoceanic
08:48PM 43.9718 -50.1798 78° East 463 533 34,000  Level FlightAware Transoceanic
08:49PM 44.0000 -50.0000 71° East 463 533 34,000  Level FlightAware Transoceanic
08:50PM 44.0424 -49.8309 71° East 463 533 34,000  Level FlightAware Transoceanic
08:51PM 44.0846 -49.6615 71° East 463 533 34,000  Level FlightAware Transoceanic
08:52PM 44.1266 -49.4918 71° East 463 533 34,000  Level FlightAware Transoceanic
08:52PM 44.0000 -50.0000 71° East 468 539 34,000  Level New York Oceanic (ODAPS)
08:53PM 44.1683 -49.3220 71° East 463 533 34,000  Level FlightAware Transoceanic
08:54PM 44.2097 -49.1519 71° East 463 533 34,000  Level FlightAware Transoceanic
08:55PM 44.2509 -48.9815 71° East 463 533 34,000  Level FlightAware Transoceanic
08:56PM 44.2918 -48.8109 72° East 463 533 34,000  Level FlightAware Transoceanic
08:57PM 44.3325 -48.6401 72° East 463 533 34,000  Level FlightAware Transoceanic
08:58PM 44.3729 -48.4691 72° East 468 539 34,000  Level FlightAware Transoceanic
08:59PM 44.4131 -48.2978 72° East 468 539 34,000  Level FlightAware Transoceanic
08:59PM 44.4167 -48.2667 72° East 471 542 34,000  Level New York Oceanic (ODAPS)
09:00PM 44.4530 -48.1263 72° East 468 539 34,000  Level FlightAware Transoceanic
09:01PM 44.4926 -47.9545 72° East 468 539 34,000  Level FlightAware Transoceanic
09:02PM 44.5320 -47.7825 72° East 468 539 34,000  Level FlightAware Transoceanic
09:03PM 44.5712 -47.6103 72° East 468 539 34,000  Level FlightAware Transoceanic
09:04PM 44.6101 -47.4378 72° East 468 539 34,000  Level FlightAware Transoceanic
09:05PM 44.6487 -47.2651 73° East 468 539 34,000  Level FlightAware Transoceanic
09:06PM 44.6566 -47.2154 73° East 471 542 34,000  Level FlightAware Transoceanic
09:07PM 44.6956 -47.0393 73° East 471 542 34,000  Level FlightAware Transoceanic
09:08PM 44.7344 -46.8630 73° East 471 542 34,000  Level FlightAware Transoceanic
09:09PM 44.7729 -46.6865 73° East 471 542 34,000  Level FlightAware Transoceanic
09:10PM 44.8111 -46.5097 73° East 471 542 34,000  Level FlightAware Transoceanic
09:11PM 44.8490 -46.3327 73° East 471 542 34,000  Level FlightAware Transoceanic
09:12PM 44.8867 -46.1555 73° East 471 542 34,000  Level FlightAware Transoceanic
09:13PM 44.9241 -45.9780 73° East 471 542 34,000  Level FlightAware Transoceanic
09:14PM 44.9613 -45.8004 74° East 471 542 34,000  Level FlightAware Transoceanic
09:15PM 44.9981 -45.6224 74° East 471 542 34,000  Level FlightAware Transoceanic
09:16PM 45.0347 -45.4443 74° East 471 542 34,000  Level FlightAware Transoceanic
09:17PM 45.0710 -45.2659 74° East 471 542 34,000  Level FlightAware Transoceanic
09:18PM 45.1070 -45.0873 74° East 471 542 34,000  Level FlightAware Transoceanic
09:19PM 45.1427 -44.9085 74° East 471 542 34,000  Level FlightAware Transoceanic
09:20PM 45.1782 -44.7294 74° East 471 542 34,000  Level FlightAware Transoceanic
09:21PM 45.2134 -44.5502 75° East 471 542 34,000  Level FlightAware Transoceanic
09:22PM 45.2483 -44.3707 75° East 471 542 34,000  Level FlightAware Transoceanic
09:23PM 45.2829 -44.1910 75° East 471 542 34,000  Level FlightAware Transoceanic
09:24PM 45.3173 -44.0110 75° East 471 542 34,000  Level FlightAware Transoceanic
09:25PM 45.3513 -43.8309 75° East 471 542 34,000  Level FlightAware Transoceanic
09:26PM 45.3851 -43.6505 75° East 471 542 34,000  Level FlightAware Transoceanic
09:27PM 45.4186 -43.4700 75° East 471 542 34,000  Level FlightAware Transoceanic
09:28PM 45.4518 -43.2892 75° East 471 542 34,000  Level FlightAware Transoceanic
09:29PM 45.4847 -43.1082 76° East 471 542 34,000  Level FlightAware Transoceanic
09:30PM 45.5173 -42.9269 76° East 471 542 34,000  Level FlightAware Transoceanic
09:31PM 45.5497 -42.7455 76° East 471 542 34,000  Level FlightAware Transoceanic
09:32PM 45.5817 -42.5639 76° East 471 542 34,000  Level FlightAware Transoceanic
09:33PM 45.6135 -42.3820 76° East 471 542 34,000  Level FlightAware Transoceanic
09:34PM 45.6450 -42.2000 76° East 471 542 34,000  Level FlightAware Transoceanic
09:35PM 45.6762 -42.0177 76° East 471 542 34,000  Level FlightAware Transoceanic
09:36PM 45.7071 -41.8353 76° East 471 542 34,000  Level FlightAware Transoceanic
09:37PM 45.7377 -41.6526 77° East 471 542 34,000  Level FlightAware Transoceanic
09:38PM 45.7680 -41.4698 77° East 471 542 34,000  Level FlightAware Transoceanic
09:39PM 45.7980 -41.2868 77° East 471 542 34,000  Level FlightAware Transoceanic
09:40PM 45.8278 -41.1035 77° East 471 542 34,000  Level FlightAware Transoceanic
09:41PM 45.8572 -40.9201 77° East 471 542 34,000  Level FlightAware Transoceanic
09:42PM 45.8864 -40.7364 77° East 471 542 34,000  Level FlightAware Transoceanic
09:43PM 45.9152 -40.5526 77° East 471 542 34,000  Level FlightAware Transoceanic
09:44PM 45.9438 -40.3686 77° East 471 542 34,000  Level FlightAware Transoceanic
09:45PM 45.9720 -40.1844 78° East 471 542 34,000  Level FlightAware Transoceanic
09:46PM 46.0000 -40.0000 70° East 471 542 34,000  Level FlightAware Transoceanic
09:47PM 46.0465 -39.8151 70° East 471 542 34,000  Level FlightAware Transoceanic
09:48PM 46.0927 -39.6298 70° East 471 542 34,000  Level FlightAware Transoceanic
09:49PM 46.1385 -39.4443 70° East 471 542 34,000  Level FlightAware Transoceanic
09:50PM 46.1841 -39.2584 71° East 471 542 34,000  Level FlightAware Transoceanic
09:51PM 46.2294 -39.0723 71° East 471 542 34,000  Level FlightAware Transoceanic
09:52PM 46.2744 -38.8858 71° East 471 542 34,000  Level FlightAware Transoceanic
09:53PM 46.3191 -38.6990 71° East 471 542 34,000  Level FlightAware Transoceanic
09:54PM 46.3634 -38.5119 71° East 471 542 34,000  Level FlightAware Transoceanic
09:55PM 46.4075 -38.3245 71° East 471 542 34,000  Level FlightAware Transoceanic
09:56PM 46.4512 -38.1368 71° East 471 542 34,000  Level FlightAware Transoceanic
09:57PM 46.4947 -37.9489 72° East 471 542 34,000  Level FlightAware Transoceanic
09:58PM 46.5378 -37.7606 72° East 471 542 34,000  Level FlightAware Transoceanic
09:59PM 46.5807 -37.5720 72° East 471 542 34,000  Level FlightAware Transoceanic
10:00PM 46.6232 -37.3831 72° East 471 542 34,000  Level FlightAware Transoceanic
10:01PM 46.6654 -37.1939 72° East 471 542 34,000  Level FlightAware Transoceanic
10:02PM 46.7073 -37.0045 72° East 471 542 34,000  Level FlightAware Transoceanic
10:03PM 46.7489 -36.8147 72° East 471 542 34,000  Level FlightAware Transoceanic
10:04PM 46.7902 -36.6246 72° East 471 542 34,000  Level FlightAware Transoceanic
10:05PM 46.8311 -36.4343 73° East 471 542 34,000  Level FlightAware Transoceanic
10:06PM 46.8717 -36.2436 73° East 471 542 34,000  Level FlightAware Transoceanic
10:07PM 46.9121 -36.0527 73° East 471 542 34,000  Level FlightAware Transoceanic
10:08PM 46.9521 -35.8615 73° East 471 542 34,000  Level FlightAware Transoceanic
10:09PM 46.9918 -35.6700 73° East 471 542 34,000  Level FlightAware Transoceanic
10:10PM 47.0311 -35.4782 73° East 471 542 34,000  Level FlightAware Transoceanic
10:11PM 47.0702 -35.2862 73° East 471 542 34,000  Level FlightAware Transoceanic
10:12PM 47.1089 -35.0938 74° East 471 542 34,000  Level FlightAware Transoceanic
10:13PM 47.1473 -34.9012 74° East 471 542 34,000  Level FlightAware Transoceanic
10:14PM 47.1854 -34.7083 74° East 471 542 34,000  Level FlightAware Transoceanic
10:15PM 47.2231 -34.5151 74° East 471 542 34,000  Level FlightAware Transoceanic
10:16PM 47.2606 -34.3217 74° East 471 542 34,000  Level FlightAware Transoceanic
10:17PM 47.2977 -34.1280 74° East 471 542 34,000  Level FlightAware Transoceanic
10:18PM 47.3344 -33.9340 74° East 471 542 34,000  Level FlightAware Transoceanic
10:19PM 47.3709 -33.7397 75° East 471 542 34,000  Level FlightAware Transoceanic
10:20PM 47.4070 -33.5452 75° East 471 542 34,000  Level FlightAware Transoceanic
10:21PM 47.4428 -33.3504 75° East 471 542 34,000  Level FlightAware Transoceanic
10:22PM 47.4783 -33.1553 75° East 471 542 34,000  Level FlightAware Transoceanic
10:23PM 47.5134 -32.9600 75° East 471 542 34,000  Level FlightAware Transoceanic
10:24PM 47.5482 -32.7644 75° East 471 542 34,000  Level FlightAware Transoceanic
10:25PM 47.5826 -32.5686 75° East 471 542 34,000  Level FlightAware Transoceanic
10:26PM 47.6168 -32.3725 76° East 471 542 34,000  Level FlightAware Transoceanic
10:27PM 47.6506 -32.1761 76° East 471 542 34,000  Level FlightAware Transoceanic
10:28PM 47.6840 -31.9795 76° East 471 542 34,000  Level FlightAware Transoceanic
10:29PM 47.7172 -31.7827 76° East 471 542 34,000  Level FlightAware Transoceanic
10:30PM 47.7499 -31.5856 76° East 471 542 34,000  Level FlightAware Transoceanic
10:31PM 47.7824 -31.3882 76° East 471 542 34,000  Level FlightAware Transoceanic
10:32PM 47.8145 -31.1906 76° East 471 542 34,000  Level FlightAware Transoceanic
10:33PM 47.8463 -30.9928 77° East 471 542 34,000  Level FlightAware Transoceanic
10:34PM 47.8777 -30.7947 77° East 471 542 34,000  Level FlightAware Transoceanic
10:35PM 47.9088 -30.5964 77° East 471 542 34,000  Level FlightAware Transoceanic
10:36PM 47.9395 -30.3978 77° East 471 542 34,000  Level FlightAware Transoceanic
10:37PM 47.9699 -30.1990 77° East 471 542 34,000  Level FlightAware Transoceanic
10:38PM 48.0171 -30.0203 68° East  Level Estimated
10:39PM 48.0639 -29.8413 69° East  Level Estimated
10:40PM 48.1099 -29.6641 69° East  Level Estimated
10:41PM 48.1556 -29.4866 69° East  Level Estimated
10:42PM 48.2010 -29.3088 69° East  Level Estimated
10:43PM 48.2462 -29.1306 69° East  Level Estimated
10:44PM 48.2911 -28.9522 69° East  Level Estimated
10:45PM 48.3357 -28.7734 69° East  Level Estimated
10:46PM 48.3801 -28.5944 69° East  Level Estimated
10:47PM 48.4241 -28.4150 70° East  Level Estimated
10:48PM 48.4679 -28.2353 70° East  Level Estimated
10:49PM 48.5114 -28.0553 70° East  Level Estimated
10:50PM 48.5546 -27.8750 70° East  Level Estimated
10:51PM 48.5975 -27.6943 70° East  Level Estimated
10:52PM 48.6402 -27.5134 70° East  Level Estimated
10:53PM 48.6826 -27.3322 70° East  Level Estimated
10:54PM 48.7247 -27.1507 71° East  Level Estimated
10:55PM 48.7665 -26.9688 71° East  Level Estimated
10:56PM 48.8080 -26.7867 71° East  Level Estimated
10:57PM 48.8492 -26.6042 71° East  Level Estimated
10:58PM 48.8901 -26.4215 71° East  Level Estimated
10:59PM 48.9308 -26.2385 71° East  Level Estimated
11:00PM 48.9712 -26.0551 71° East  Level Estimated
11:01PM 49.0112 -25.8715 72° East  Level Estimated
11:02PM 49.0510 -25.6876 72° East  Level Estimated
11:03PM 49.0905 -25.5034 72° East  Level Estimated
11:04PM 49.1297 -25.3189 72° East  Level Estimated
11:05PM 49.1686 -25.1341 72° East  Level Estimated
11:06PM 49.2072 -24.9490 72° East  Level Estimated
11:07PM 49.2455 -24.7636 72° East  Level Estimated
11:08PM 49.2835 -24.5779 73° East  Level Estimated
11:09PM 49.3212 -24.3920 73° East  Level Estimated
11:10PM 49.3586 -24.2057 73° East  Level Estimated
11:11PM 49.3957 -24.0192 73° East  Level Estimated
11:12PM 49.4325 -23.8324 73° East  Level Estimated
11:13PM 49.4690 -23.6453 73° East  Level Estimated
11:14PM 49.5052 -23.4580 73° East  Level Estimated
11:15PM 49.5411 -23.2703 74° East  Level Estimated
11:16PM 49.5768 -23.0824 74° East  Level Estimated
11:17PM 49.6120 -22.8943 74° East  Level Estimated
11:18PM 49.6470 -22.7058 74° East  Level Estimated
11:19PM 49.6817 -22.5171 74° East  Level Estimated
11:20PM 49.7161 -22.3281 74° East  Level Estimated
11:21PM 49.7502 -22.1388 74° East  Level Estimated
11:22PM 49.7839 -21.9493 75° East  Level Estimated
11:23PM 49.8174 -21.7595 75° East  Level Estimated
11:24PM 49.8505 -21.5695 75° East  Level Estimated
11:25PM 49.8834 -21.3792 75° East  Level Estimated
11:26PM 49.9159 -21.1886 75° East  Level Estimated
11:27PM 49.9482 -20.9974 75° East  Level Estimated
11:28PM 49.9801 -20.8058 75° East  Level Estimated
11:29PM 50.0118 -20.6140 76° East  Level Estimated
11:30PM 50.0431 -20.4220 76° East  Level Estimated
11:31PM 50.0741 -20.2297 76° East  Level Estimated
11:32PM 50.1048 -20.0371 76° East  Level Estimated
11:33PM 50.1352 -19.8443 76° East  Level Estimated
11:34PM 50.1653 -19.6513 76° East  Level Estimated
11:35PM 50.1950 -19.4580 76° East  Level Estimated
11:36PM 50.2244 -19.2645 77° East  Level Estimated
11:37PM 50.2535 -19.0708 77° East  Level Estimated
11:38PM 50.2823 -18.8768 77° East  Level Estimated
11:39PM 50.3108 -18.6826 77° East  Level Estimated
11:40PM 50.3389 -18.4881 77° East  Level Estimated
11:41PM 50.3667 -18.2934 77° East  Level Estimated
11:42PM 50.3942 -18.0985 77° East  Level Estimated
11:43PM 50.4213 -17.9034 78° East  Level Estimated
11:44PM 50.4482 -17.7080 78° East  Level Estimated
11:45PM 50.4747 -17.5125 78° East  Level Estimated
11:46PM 50.5008 -17.3167 78° East  Level Estimated
11:47PM 50.5267 -17.1207 78° East  Level Estimated
11:48PM 50.5522 -16.9245 78° East  Level Estimated
11:49PM 50.5774 -16.7280 79° East  Level Estimated
11:50PM 50.6022 -16.5314 79° East  Level Estimated
11:51PM 50.6267 -16.3345 79° East  Level Estimated
11:52PM 50.6509 -16.1375 79° East  Level Estimated
11:53PM 50.6748 -15.9402 79° East  Level Estimated
11:54PM 50.6983 -15.7428 79° East  Level Estimated
11:55PM 50.7215 -15.5451 79° East  Level Estimated
11:56PM 50.7443 -15.3473 80° East  Level Estimated
11:57PM 50.7668 -15.1493 80° East  Level Estimated
11:58PM 50.7890 -14.9510 80° East  Level Estimated
11:59PM 50.8109 -14.7526 80° East  Level Estimated
12:00AM 50.8324 -14.5540 80° East  Level Estimated
12:01AM 50.8536 -14.3552 80° East  Level Estimated
12:02AM 50.8744 -14.1563 81° East  Level Estimated
12:03AM 50.8949 -13.9572 81° East  Level Estimated
12:04AM 50.9151 -13.7578 81° East  Level Estimated
12:05AM 50.9349 -13.5584 81° East  Level Estimated
12:06AM 50.9544 -13.3587 81° East  Level Estimated
12:07AM 50.9735 -13.1589 81° East  Level Estimated
12:07AM 50.9930 -10.7390 81° East 513 590 35,000  Level FlightAware
12:08AM 50.9923 -12.9589 81° East  Level Estimated
12:08AM 51.0230 -10.5960 72° East 513 590 35,000  Level FlightAware
12:09AM 51.0530 -10.4540 71° East 513 590 35,000  Level FlightAware
12:09AM 51.0870 -10.2900 72° East 514 592 35,000  Level FlightAware
12:10AM 51.1150 -10.1510 72° East 514 592 35,000  Level FlightAware
12:11AM 51.1480 -9.9880 72° East 510 587 35,000  Level FlightAware
12:11AM 51.1770 -9.8470 72° East 509 586 35,000  Level FlightAware
12:12AM 51.2050 -9.7040 73° East 507 583 35,000  Level FlightAware
12:13AM 51.2380 -9.5400 72° East 505 581 35,000  Level FlightAware
12:13AM 51.2670 -9.3950 72° East 503 579 35,000  Level FlightAware
12:14AM 51.2980 -9.2340 73° East 505 581 35,000  Level FlightAware
12:15AM 51.3250 -9.0920 73° East 505 581 35,000 -1,380 Level FlightAware
12:15AM 51.3453 -8.9887 73° East 470 541 33,500  Descending FlightAware UK
12:16AM 51.3510 -8.9580 73° East 504 580 35,000  Climbing FlightAware
12:16AM 51.3576 -8.9247 73° East 468 539 33,500 -5,640 Descending FlightAware UK
12:16AM 51.3658 -8.8819 73° East 468 539 33,500  Level FlightAware UK
12:16AM 51.3781 -8.8179 73° East 468 539 33,500 4,680 Level FlightAware UK
12:16AM 51.3750 -8.8350 73° East 504 580 35,000 -720 Climbing FlightAware
12:16AM 51.3899 -8.7537 73° East 468 539 33,300 -3,480 Descending FlightAware UK
12:17AM 51.4021 -8.6897 73° East 468 539 33,000 2,340 Descending FlightAware UK
12:17AM 51.4050 -8.6750 73° East 505 581 34,400 -1,680 Climbing FlightAware
12:17AM 51.4143 -8.6256 73° East 474 545 32,500 -6,600 Descending FlightAware UK
12:17AM 51.4223 -8.5826 73° East 476 548 32,200 -1,020 Descending FlightAware UK
12:18AM 51.4344 -8.5182 73° East 474 545 32,000 3,120 Descending FlightAware UK
12:18AM 51.4360 -8.5100 73° East 505 581 33,500 -1,260 Climbing FlightAware
12:18AM 51.4504 -8.4324 73° East 474 545 31,500 -3,480 Descending FlightAware UK
12:18AM 51.4623 -8.3679 73° East 476 548 31,500 3,180 Level FlightAware UK
12:18AM 51.4670 -8.3450 73° East 504 580 33,000  Climbing FlightAware
12:19AM 51.4822 -8.2603 73° East 474 545 31,500 -2,400 Descending FlightAware UK
12:19AM 51.4945 -8.1953 73° East 474 545 31,500 4,500 Level FlightAware UK
12:19AM 51.4920 -8.2110 73° East 502 578 33,000  Climbing FlightAware
12:19AM 51.5068 -8.1311 73° East 474 545 31,500 -2,700 Descending FlightAware UK
12:20AM 51.5188 -8.0668 73° East 474 545 31,500 3,060 Level FlightAware UK
12:20AM 51.5230 -8.0410 73° East 501 577 33,000  Climbing FlightAware
12:20AM 51.5382 -7.9596 73° East 476 548 31,500 -2,460 Descending FlightAware UK
12:20AM 51.5500 -7.8944 74° East 476 548 31,500 4,260 Level FlightAware UK
12:20AM 51.5490 -7.8990 74° East 501 577 33,000  Climbing FlightAware
12:21AM 51.5614 -7.8300 74° East 474 545 31,500 -2,760 Descending FlightAware UK
12:21AM 51.5729 -7.7657 74° East 476 548 31,500 3,000 Level FlightAware UK
12:21AM 51.5780 -7.7370 74° East 500 575 33,000  Climbing FlightAware
12:22AM 51.5923 -7.6585 74° East 476 548 31,500 -2,520 Descending FlightAware UK
12:22AM 51.6042 -7.5935 74° East 476 548 31,500 4,080 Level FlightAware UK
12:22AM 51.6020 -7.6030 74° East 499 574 33,000  Climbing FlightAware
12:22AM 51.6193 -7.5085 74° East 476 548 31,500 -2,400 Descending FlightAware UK
12:23AM 51.6307 -7.4436 74° East 474 545 31,500 3,600 Level FlightAware UK
12:23AM 51.6310 -7.4400 74° East 498 573 33,000  Climbing FlightAware
12:23AM 51.6457 -7.3581 74° East 474 545 31,500 -2,580 Descending FlightAware UK
12:23AM 51.6570 -7.2939 74° East 472 543 31,500 4,980 Level FlightAware UK
12:23AM 51.6530 -7.3170 74° East 498 573 33,000  Climbing FlightAware
12:24AM 51.6680 -7.2296 74° East 472 543 31,500 -2,520 Descending FlightAware UK
12:24AM 51.6793 -7.1652 74° East 474 545 31,500 3,300 Level FlightAware UK
12:24AM 51.6800 -7.1620 74° East 502 578 33,000  Climbing FlightAware
12:24AM 51.6943 -7.0791 74° East 474 545 31,500 -2,760 Descending FlightAware UK
12:25AM 51.7056 -7.0145 74° East 474 545 31,500 3,000 Level FlightAware UK
12:25AM 51.7080 -7.0010 74° East 500 575 33,000  Climbing FlightAware
12:25AM 51.7241 -6.9067 74° East 476 548 31,500 -2,520 Descending FlightAware UK
12:25AM 51.7351 -6.8422 74° East 474 545 31,500 4,080 Level FlightAware UK
12:25AM 51.7340 -6.8510 74° East 500 575 33,000  Climbing FlightAware
12:26AM 51.7497 -6.7561 74° East 474 545 31,500 -2,400 Descending FlightAware UK
12:26AM 51.7608 -6.6909 75° East 476 548 31,500 4,500 Level FlightAware UK
12:26AM 51.7600 -6.6970 75° East 500 575 33,000  Climbing FlightAware
12:26AM 51.7718 -6.6264 75° East 476 548 31,500 -2,580 Descending FlightAware UK
12:27AM 51.7772 -6.5594 82° East 474 545 31,500  Level FlightAware UK
12:27AM 51.7748 -6.4919 93° East 474 545 31,500  Level FlightAware UK
12:27AM 51.7706 -6.4256 96° East 476 548 31,500  Level FlightAware UK
12:28AM 51.7661 -6.3579 96° East 474 545 31,500  Level FlightAware UK
12:28AM 51.7615 -6.2918 96° East 474 545 31,500 3,420 Level FlightAware UK
12:28AM 51.7600 -6.2690 96° East 501 577 33,000  Climbing FlightAware
12:28AM 51.7558 -6.2026 96° East 476 548 31,500 -2,760 Descending FlightAware UK
12:29AM 51.7525 -6.1358 94° East 474 545 31,500 3,600 Level FlightAware UK
12:29AM 51.7520 -6.1220 94° East 498 573 33,000  Climbing FlightAware
12:29AM 51.7488 -6.0470 94° East 472 543 31,500 -2,580 Descending FlightAware UK
12:29AM 51.7458 -5.9813 94° East 472 543 31,500 3,900 Level FlightAware UK
12:29AM 51.7450 -5.9770 94° East 499 574 33,000  Climbing FlightAware
12:30AM 51.7406 -5.8920 94° East 474 545 31,500 -2,460 Descending FlightAware UK
12:30AM 51.7360 -5.8257 96° East 474 545 31,500 3,420 Level FlightAware UK
12:30AM 51.7340 -5.8080 96° East 499 574 33,000  Climbing FlightAware
12:30AM 51.7296 -5.7373 96° East 474 545 31,500 -2,700 Descending FlightAware UK
12:31AM 51.7249 -5.6710 96° East 476 548 31,500 3,720 Level FlightAware UK
12:31AM 51.7240 -5.6570 96° East 497 572 33,000  Climbing FlightAware
12:31AM 51.7188 -5.5818 96° East 474 545 31,500 -2,520 Descending FlightAware UK
12:31AM 51.7144 -5.5163 96° East 474 545 31,500 3,420 Level FlightAware UK
12:31AM 51.7130 -5.4970 96° East 494 568 33,000  Climbing FlightAware
12:32AM 51.7083 -5.4276 96° East 474 545 31,500 -2,700 Descending FlightAware UK
12:32AM 51.7037 -5.3618 96° East 474 545 31,500 3,720 Level FlightAware UK
12:32AM 51.7030 -5.3500 96° East 495 570 33,000  Climbing FlightAware
12:32AM 51.6977 -5.2743 96° East 474 545 31,500 -2,700 Descending FlightAware UK
12:33AM 51.6930 -5.2084 96° East 474 545 31,400 3,300 Descending FlightAware UK
12:33AM 51.6910 -5.1840 96° East 493 567 33,000  Climbing FlightAware
12:33AM 51.6868 -5.1219 96° East 472 543 31,400 -2,760 Descending FlightAware UK
12:33AM 51.6819 -5.0557 97° East 470 541 31,500 3,840 Climbing FlightAware UK
12:34AM 51.6800 -5.0350 97° East 494 568 33,000  Climbing FlightAware
12:34AM 51.6758 -4.9684 97° East 470 541 31,500 -2,580 Descending FlightAware UK
12:34AM 51.6709 -4.9021 97° East 472 543 31,500 3,180 Level FlightAware UK
12:34AM 51.6690 -4.8760 97° East 496 571 33,000  Climbing FlightAware
12:35AM 51.6625 -4.7932 97° East 472 543 31,500 -2,400 Descending FlightAware UK
12:35AM 51.6575 -4.7267 97° East 472 543 31,500 4,500 Level FlightAware UK
12:35AM 51.6570 -4.7290 97° East 495 570 33,000  Climbing FlightAware
12:35AM 51.6523 -4.6609 97° East 472 543 31,500 -2,700 Descending FlightAware UK
12:36AM 51.6473 -4.5950 97° East 472 543 31,500 3,720 Level FlightAware UK
12:36AM 51.6460 -4.5840 97° East 495 570 33,000  Climbing FlightAware
12:36AM 51.6405 -4.5073 97° East 470 541 31,500 -2,520 Descending FlightAware UK
12:36AM 51.6354 -4.4418 97° East 470 541 31,500 3,300 Level FlightAware UK
12:36AM 51.6330 -4.4170 97° East 491 565 33,000  Climbing FlightAware
12:37AM 51.6283 -4.3541 97° East 466 536 31,500 -2,760 Descending FlightAware UK
12:37AM 51.6230 -4.2884 97° East 466 536 31,500 4,080 Level FlightAware UK
12:37AM 51.6221 -4.2772 97° East 490 564 33,000  Climbing FlightAware ADS-B
12:37AM 51.6161 -4.2021 97° East 466 536 31,500  Descending FlightAware UK
12:38AM 51.6129 -4.1640 97° East 490 564 33,000  Climbing FlightAware ADS-B
12:38AM 51.6073 -4.0943 97° East 464 534 31,500  Descending FlightAware UK
12:38AM 51.6038 -4.0532 97° East 491 565 33,000  Climbing FlightAware ADS-B
12:38AM 51.5986 -3.9861 97° East 466 536 31,500  Descending FlightAware UK
12:39AM 51.5948 -3.9443 97° East 493 567 33,000  Climbing FlightAware ADS-B
12:39AM 51.5895 -3.8775 97° East 470 541 31,500 -2,640 Descending FlightAware UK
12:39AM 51.5839 -3.8115 98° East 470 541 31,400 4,680 Descending FlightAware UK
12:39AM 51.5836 -3.8115 98° East 492 566 33,000 -720 Climbing FlightAware ADS-B
12:39AM 51.5784 -3.7480 98° East 464 534 31,200 -1,200 Descending FlightAware UK
12:40AM 51.5743 -3.7014 98° East 485 558 32,400 -1,620 Climbing FlightAware ADS-B
12:40AM 51.5692 -3.6411 98° East 460 529 30,400 -4,080 Descending FlightAware UK
12:40AM 51.5637 -3.5779 98° East 460 529 30,100 1,440 Descending FlightAware UK
12:41AM 51.5583 -3.5158 98° East 477 549 31,300 -1,020 Climbing FlightAware ADS-B
12:41AM 51.5532 -3.4535 98° East 450 518 29,500 -3,960 Descending FlightAware UK
12:41AM 51.5479 -3.3922 98° East 446 513 29,000 2,220 Descending FlightAware UK
12:41AM 51.5458 -3.3726 98° East 464 534 30,400 -1,500 Climbing FlightAware ADS-B
12:42AM 51.5404 -3.3108 98° East 444 511 28,400 -3,900 Descending FlightAware UK
12:42AM 51.5348 -3.2492 98° East 444 511 28,000 2,460 Descending FlightAware UK
12:42AM 51.5332 -3.2321 98° East 463 533 29,400 -1,320 Climbing FlightAware ADS-B
12:42AM 51.5276 -3.1696 98° East 440 506 27,500 -1,140 Descending FlightAware UK
12:42AM 51.5235 -3.1244 98° East 452 520 28,800 -1,200 Climbing FlightAware ADS-B
12:43AM 51.5187 -3.0704 98° East 432 497 26,900 -1,500 Descending FlightAware UK
12:43AM 51.5137 -3.0161 98° East 449 517 28,000 -1,560 Climbing FlightAware ADS-B
12:43AM 51.5080 -2.9529 98° East 428 493 26,000 -1,380 Descending FlightAware UK
12:44AM 51.5033 -2.9036 98° East 446 513 27,200 -1,320 Climbing FlightAware ADS-B
12:44AM 51.4971 -2.8349 98° East 424 488 25,200 -1,380 Descending FlightAware UK
12:44AM 51.4923 -2.7855 98° East 442 509 26,400 -1,200 Climbing FlightAware ADS-B
12:44AM 51.4879 -2.7376 98° East 420 483 24,600 -1,620 Descending FlightAware UK
12:45AM 51.4833 -2.6886 98° East 435 501 25,600 -2,040 Climbing FlightAware ADS-B
12:45AM 51.4789 -2.6421 98° East 416 479 23,600 -1,920 Descending FlightAware UK
12:45AM 51.4739 -2.5893 98° East 429 494 24,600 -1,860 Climbing FlightAware ADS-B
12:46AM 51.4683 -2.5294 98° East 408 470 22,500 -1,800 Descending FlightAware UK
12:46AM 51.4646 -2.4929 98° East 423 487 23,700 -2,040 Climbing FlightAware ADS-B
12:46AM 51.4593 -2.4362 98° East 402 463 21,500 -2,040 Descending FlightAware UK
12:46AM 51.4557 -2.4005 98° East 418 481 22,700 -1,800 Climbing FlightAware ADS-B
12:47AM 51.4505 -2.3453 98° East 398 458 20,600 -1,800 Descending FlightAware UK
12:47AM 51.4468 -2.3094 98° East 412 474 21,800 -1,800 Climbing FlightAware ADS-B
12:47AM 51.4416 -2.2554 98° East 390 449 19,700 -1,800 Descending FlightAware UK
12:47AM 51.4379 -2.2186 98° East 407 468 20,900 -1,800 Climbing FlightAware ADS-B
12:48AM 51.4329 -2.1666 98° East 386 444 18,800 -1,980 Descending FlightAware UK
12:48AM 51.4290 -2.1288 98° East 402 463 19,900 -1,800 Climbing FlightAware ADS-B
12:48AM 51.4242 -2.0786 98° East 382 440 17,900 -1,800 Descending FlightAware UK
12:48AM 51.4202 -2.0408 98° East 397 457 19,000 -1,800 Climbing FlightAware ADS-B
12:49AM 51.4152 -1.9911 98° East 378 435 17,000 -1,800 Descending FlightAware UK
12:49AM 51.4113 -1.9520 98° East 392 451 18,100 -1,800 Climbing FlightAware ADS-B
12:49AM 51.4066 -1.9059 98° East 374 430 16,100 -1,800 Descending FlightAware UK
12:49AM 51.4025 -1.8659 98° East 387 445 17,200 -1,800 Climbing FlightAware ADS-B
12:50AM 51.3981 -1.8212 98° East 370 426 15,200 -1,800 Descending FlightAware UK
12:50AM 51.3936 -1.7793 98° East 383 441 16,300 -1,620 Climbing FlightAware ADS-B
12:50AM 51.3894 -1.7368 98° East 368 423 14,400 -1,560 Descending FlightAware UK
12:50AM 51.3864 -1.7056 98° East 379 436 15,600 1,920 Climbing FlightAware ADS-B
12:50AM 51.3863 -1.6697 90° East 375 432 15,200 -1,620 Descending FlightAware ADS-B
12:51AM 51.3888 -1.6425 82° East 368 423 15,000 -4,980 Descending FlightAware ADS-B
12:51AM 51.3951 -1.5907 82° East 356 410 12,800 -2,040 Descending FlightAware UK
12:51AM 51.3987 -1.5621 82° East 363 418 14,000 -1,800 Climbing FlightAware ADS-B
12:51AM 51.4048 -1.5120 82° East 352 405 11,900 -1,740 Descending FlightAware UK
12:52AM 51.4086 -1.4792 82° East 357 411 13,100 -1,620 Climbing FlightAware ADS-B
12:52AM 51.4141 -1.4336 82° East 348 400 11,100 -1,500 Descending FlightAware UK
12:52AM 51.4141 -1.4285 82° East 356 410 12,600 3,840 Climbing FlightAware ADS-B
12:52AM 51.4151 -1.3914 88° East 356 410 12,200 -1,500 Descending FlightAware ADS-B
12:53AM 51.4125 -1.3449 95° East 352 405 11,800 -4,080 Descending FlightAware ADS-B
12:53AM 51.4067 -1.2942 95° East 340 391 9,700 -1,800 Descending FlightAware UK
12:53AM 51.4036 -1.2671 95° East 349 402 10,900 -1,620 Climbing FlightAware ADS-B
12:53AM 51.3982 -1.2187 95° East 332 382 8,900 -1,020 Descending FlightAware UK
12:54AM 51.3946 -1.1905 95° East 338 389 10,400 -240 Climbing FlightAware ADS-B
12:54AM 51.3894 -1.1462 95° East 308 354 8,800 -420 Descending FlightAware UK
12:54AM 51.3862 -1.1194 95° East 313 360 10,200 -600 Climbing FlightAware ADS-B
12:54AM 51.3815 -1.0784 95° East 290 334 8,500 -480 Descending FlightAware UK
12:54AM 51.3792 -1.0597 95° East 301 346 10,000 -540 Climbing FlightAware ADS-B
12:55AM 51.3754 -1.0263 95° East 288 331 8,300 -840 Descending FlightAware UK
12:55AM 51.3753 -1.0265 95° East 297 342 9,800 4,860 Climbing FlightAware ADS-B
12:55AM 51.3715 -0.9943 101° East 294 338 9,600 -1,020 Descending FlightAware ADS-B
12:55AM 51.3676 -0.9617 101° East 295 339 9,300 -1,020 Descending FlightAware ADS-B
12:56AM 51.3638 -0.9295 101° East 293 337 9,100 -600 Descending FlightAware ADS-B
12:56AM 51.3598 -0.8968 101° East 291 335 9,000 -240 Descending FlightAware ADS-B
12:56AM 51.3560 -0.8644 101° East 292 336 9,000 -420 Level FlightAware ADS-B
12:56AM 51.3519 -0.8310 101° East 291 335 8,800 -1,020 Descending FlightAware ADS-B
12:57AM 51.3480 -0.7990 101° East 290 334 8,500 -1,080 Descending FlightAware ADS-B
12:57AM 51.3462 -0.7825 100° East 290 334 8,400 -1,140 Descending FlightAware ADS-B
12:57AM 51.3458 -0.7762 96° East 290 334 8,300 -1,020 Descending FlightAware ADS-B
12:57AM 51.3457 -0.7690 91° East 288 331 8,300 -1,020 Level FlightAware ADS-B
12:57AM 51.3457 -0.7622 90° East 288 331 8,200 -1,680 Descending FlightAware ADS-B
12:57AM 51.3463 -0.7461 87° East 287 330 8,000 -1,440 Descending FlightAware ADS-B
12:57AM 51.3481 -0.7183 84° East 286 329 7,700 -1,080 Descending FlightAware ADS-B
12:57AM 51.3504 -0.6868 83° East 282 325 7,500 -1,080 Descending FlightAware ADS-B
12:58AM 51.3524 -0.6596 83° East 280 322 7,200 -1,320 Descending FlightAware ADS-B
12:58AM 51.3530 -0.6473 86° East 279 321 7,100 -960 Descending FlightAware ADS-B
12:58AM 51.3531 -0.6329 89° East 279 321 7,000 -300 Descending FlightAware ADS-B
12:58AM 51.3522 -0.6029 93° East 282 325 7,000  Level FlightAware ADS-B
12:58AM 51.3508 -0.5717 94° East 283 326 7,000  Level FlightAware ADS-B
12:59AM 51.3494 -0.5404 94° East 281 323 7,000  Level FlightAware ADS-B
12:59AM 51.3480 -0.5089 94° East 279 321 7,000 -240 Level FlightAware ADS-B
12:59AM 51.3466 -0.4776 94° East 280 322 6,900 -420 Descending FlightAware ADS-B
12:59AM 51.3451 -0.4462 94° East 281 323 6,800 -420 Descending FlightAware ADS-B
01:00AM 51.3434 -0.4122 95° East 281 323 6,700 -240 Descending FlightAware ADS-B
01:00AM 51.3425 -0.3926 94° East 280 322 6,700 -480 Level FlightAware ADS-B
01:00AM 51.3425 -0.3847 90° East 279 321 6,600 -420 Descending FlightAware ADS-B
01:00AM 51.3431 -0.3619 88° East 278 320 6,600 -300 Level FlightAware ADS-B
01:00AM 51.3444 -0.3371 85° East 276 318 6,500 -480 Descending FlightAware ADS-B
01:01AM 51.3462 -0.3062 85° East 270 311 6,400 -600 Descending FlightAware ADS-B
01:01AM 51.3480 -0.2764 84° East 262 302 6,200 -600 Descending FlightAware ADS-B
01:01AM 51.3499 -0.2473 84° East 253 291 6,100 -600 Descending FlightAware ADS-B
01:01AM 51.3516 -0.2195 84° East 246 283 5,900 -600 Descending FlightAware ADS-B
01:02AM 51.3533 -0.1911 85° East 242 278 5,800 -540 Descending FlightAware ADS-B
01:02AM 51.3542 -0.1785 83° East 241 277 5,700 -600 Descending FlightAware ADS-B
01:02AM 51.3549 -0.1731 78° East 241 277 5,700  Level FlightAware ADS-B
01:02AM 51.3557 -0.1678 76° East 240 276 5,700  Level FlightAware ADS-B
01:02AM 51.3570 -0.1616 72° East 240 276 5,700 -900 Level FlightAware ADS-B
01:02AM 51.3582 -0.1563 70° East 239 275 5,600 -900 Descending FlightAware ADS-B
01:02AM 51.3600 -0.1506 63° Northeast 239 275 5,600  Level FlightAware ADS-B
01:02AM 51.3621 -0.1453 58° Northeast 236 272 5,600  Level FlightAware ADS-B
01:02AM 51.3643 -0.1408 51° Northeast 235 270 5,600 -900 Level FlightAware ADS-B
01:02AM 51.3669 -0.1370 43° Northeast 231 266 5,500 -780 Descending FlightAware ADS-B
01:02AM 51.3708 -0.1325 35° Northeast 226 260 5,500  Level FlightAware ADS-B
01:02AM 51.3740 -0.1300 26° Northeast 223 257 5,500  Level FlightAware ADS-B
01:02AM 51.3772 -0.1282 19° North 218 251 5,500  Level FlightAware ADS-B
01:02AM 51.3803 -0.1271 12° North 215 247 5,500  Level FlightAware ADS-B
01:02AM 51.3837 -0.1266 North 211 243 5,500 -900 Level FlightAware ADS-B
01:02AM 51.3875 -0.1265 North 209 241 5,400 -900 Descending FlightAware ADS-B
01:03AM 51.3903 -0.1266 359° North 207 238 5,400 -480 Level FlightAware ADS-B
01:03AM 51.4001 -0.1273 357° North 199 229 5,300 -1,080 Descending FlightAware ADS-B
01:03AM 51.4115 -0.1283 357° North 191 220 5,000 -1,440 Descending FlightAware ADS-B
01:03AM 51.4194 -0.1288 358° North 190 219 4,800 -1,200 Descending FlightAware ADS-B
01:03AM 51.4298 -0.1294 358° North 187 215 4,600 -1,380 Descending FlightAware ADS-B
01:03AM 51.4350 -0.1298 357° North 185 213 4,400 -1,620 Descending FlightAware ADS-B
01:04AM 51.4489 -0.1311 357° North 184 212 4,000 -1,380 Descending FlightAware ADS-B
01:04AM 51.4535 -0.1318 355° North 184 212 3,900 -1,380 Descending FlightAware ADS-B
01:04AM 51.4563 -0.1326 350° North 183 211 3,800 -1,740 Descending FlightAware ADS-B
01:04AM 51.4594 -0.1343 341° North 182 209 3,700 -1,500 Descending FlightAware ADS-B
01:04AM 51.4628 -0.1375 330° Northwest 180 207 3,600 -720 Descending FlightAware ADS-B
01:04AM 51.4652 -0.1408 319° Northwest 180 207 3,600 -720 Level FlightAware ADS-B
01:04AM 51.4677 -0.1458 309° West 180 207 3,500 -600 Descending FlightAware ADS-B
01:04AM 51.4698 -0.1515 301° West 181 208 3,500 -720 Level FlightAware ADS-B
01:04AM 51.4713 -0.1563 297° West 182 209 3,400 -780 Descending FlightAware ADS-B
01:04AM 51.4754 -0.1711 294° West 182 209 3,300 -840 Descending FlightAware ADS-B
01:04AM 51.4763 -0.1750 291° West 181 208 3,200 -1,020 Descending FlightAware ADS-B
01:05AM 51.4770 -0.1794 284° West 181 208 3,200 -720 Level FlightAware ADS-B
01:05AM 51.4776 -0.1873 277° West 183 211 3,100 -1,440 Descending FlightAware ADS-B
01:05AM 51.4778 -0.1965 272° West 183 211 2,900 -1,680 Descending FlightAware ADS-B
01:05AM 51.4778 -0.2026 270° West 179 206 2,800 -6,000 Descending FlightAware ADS-B
01:05AM 51.4779 -0.2217 270° West 174 200 1,000 -1,020 Descending FlightAware UK
01:05AM 51.4780 -0.2254 270° West 170 196 2,500 -1,020 Climbing FlightAware ADS-B
01:05AM 51.4780 -0.2436 270° West 168 193 700 -900 Descending FlightAware UK
01:05AM 51.4780 -0.2509 270° West 161 185 2,200 -780 Climbing FlightAware ADS-B
01:06AM 51.4780 -0.2722 270° West 164 189 400 -960 Descending FlightAware UK
01:06AM 51.4781 -0.2807 270° West 159 183 1,800 1,380 Climbing FlightAware ADS-B
01:06AM 51.4780 -0.3160 270° West 153 176 1,400 -900 Descending FlightAware
01:07AM 51.4779 -0.3421 270° West 159 183 1,000 -840 Descending FlightAware ADS-B
01:07AM 51.4778 -0.3596 269° West 144 166 900 -600 Descending FlightAware ADS-B
01:08AM 51.4780 -0.3970 271° West 151 174 400 -660 Descending FlightAware
01:09AM 51.4770 -0.4530 268° West 149 171 -480 Descending FlightAware